Time;durP1;ratioP1;P1;durP2;ratioP2;P2;SDS_P1;SDS_P2;PMS_P1;PMS_P2;Temp;Humidity;BMP_temperature;BMP_pressure;BME280_temperature;BME280_humidity;BME280_pressure;Samples;Min_cycle;Max_cycle;Signal;HPM_P1;HPM_P2
2024/02/20 00:00:31;;;;;;;13.80;4.90;;;8.60;99.90;;;;;;5055706;28;20468;-57
2024/02/20 00:02:58;;;;;;;18.87;5.20;;;8.60;99.90;;;;;;5055844;28;20445;-57
2024/02/20 00:05:25;;;;;;;21.80;5.13;;;8.60;99.90;;;;;;5055908;28;20446;-57
2024/02/20 00:07:55;;;;;;;21.63;5.10;;;8.60;99.90;;;;;;5055864;28;20445;-57
2024/02/20 00:10:22;;;;;;;19.60;5.33;;;8.60;99.90;;;;;;5055551;28;20466;-57
2024/02/20 00:12:49;;;;;;;19.77;5.60;;;8.60;99.90;;;;;;5055820;28;20441;-57
2024/02/20 00:15:16;;;;;;;19.43;5.70;;;8.60;99.90;;;;;;5055814;28;20481;-57
2024/02/20 00:17:44;;;;;;;30.83;5.77;;;8.50;99.90;;;;;;5055673;28;20449;-57
2024/02/20 00:20:11;;;;;;;15.70;5.27;;;8.60;99.90;;;;;;5055395;28;20461;-57
2024/02/20 00:22:38;;;;;;;21.23;5.07;;;8.60;99.90;;;;;;5055285;28;20983;-57
2024/02/20 00:25:07;;;;;;;17.53;4.33;;;8.60;99.90;;;;;;5055440;28;20963;-57
2024/02/20 00:27:36;;;;;;;21.07;5.40;;;8.60;99.90;;;;;;5055520;28;20446;-57
2024/02/20 00:30:04;;;;;;;15.57;4.77;;;8.60;99.90;;;;;;5055338;28;20478;-57
2024/02/20 00:32:31;;;;;;;16.07;4.90;;;8.60;99.90;;;;;;5054973;28;20452;-57
2024/02/20 00:34:58;;;;;;;18.50;4.43;;;8.70;99.90;;;;;;5055212;28;20453;-57
2024/02/20 00:37:25;;;;;;;17.03;5.03;;;8.70;99.90;;;;;;5055168;28;20450;-57
2024/02/20 00:39:52;;;;;;;16.70;4.27;;;8.70;99.90;;;;;;5055359;28;20500;-57
2024/02/20 00:42:20;;;;;;;16.20;4.13;;;8.80;99.90;;;;;;5054920;28;20446;-57
2024/02/20 00:44:47;;;;;;;24.37;5.10;;;8.80;99.90;;;;;;5055193;28;20441;-57
2024/02/20 00:47:14;;;;;;;14.40;4.97;;;8.90;99.90;;;;;;5054571;28;20536;-57
2024/02/20 00:49:41;;;;;;;14.87;5.13;;;8.90;99.90;;;;;;5055165;28;20465;-57
2024/02/20 00:52:08;;;;;;;15.37;5.60;;;9.00;99.90;;;;;;5055097;28;20544;-57
2024/02/20 00:54:40;;;;;;;21.53;5.30;;;8.90;99.90;;;;;;5054540;28;20465;-57
2024/02/20 00:57:07;;;;;;;19.57;6.10;;;9.00;99.90;;;;;;5054300;28;20473;-57
2024/02/20 00:59:36;;;;;;;21.67;5.50;;;9.00;99.90;;;;;;5054750;28;20468;-57
2024/02/20 01:02:03;;;;;;;17.03;4.83;;;8.90;99.90;;;;;;5054949;28;20456;-57
2024/02/20 01:04:29;;;;;;;12.20;5.33;;;8.90;99.90;;;;;;5054548;28;20788;-57
2024/02/20 01:06:56;;;;;;;19.30;6.00;;;8.90;99.90;;;;;;5054962;28;20537;-57
2024/02/20 01:09:23;;;;;;;19.07;5.07;;;8.90;99.90;;;;;;5054700;28;20470;-57
2024/02/20 01:11:50;;;;;;;19.67;5.30;;;8.80;99.90;;;;;;5054606;28;20935;-57
2024/02/20 01:14:16;;;;;;;12.90;4.80;;;8.90;99.90;;;;;;5054562;28;20493;-57
2024/02/20 01:16:44;;;;;;;18.43;4.70;;;8.90;99.90;;;;;;5054785;28;20487;-57
2024/02/20 01:19:11;;;;;;;13.13;4.60;;;8.90;99.90;;;;;;5054130;28;20983;-57
2024/02/20 01:21:38;;;;;;;15.50;5.00;;;8.90;99.90;;;;;;5054477;28;20445;-57
2024/02/20 01:24:06;;;;;;;15.80;5.73;;;8.90;99.90;;;;;;5054584;28;20467;-57
2024/02/20 01:26:32;;;;;;;17.03;5.47;;;8.80;99.90;;;;;;5055165;28;20442;-57
2024/02/20 01:28:59;;;;;;;25.50;6.90;;;8.80;99.90;;;;;;5054630;28;20442;-57
2024/02/20 01:31:26;;;;;;;27.17;5.90;;;8.80;99.90;;;;;;5054511;28;20543;-57
2024/02/20 01:33:54;;;;;;;19.10;5.20;;;8.70;99.90;;;;;;5054009;28;20452;-57
2024/02/20 01:36:21;;;;;;;24.70;6.00;;;8.70;99.90;;;;;;5054407;28;20581;-58
2024/02/20 01:38:48;;;;;;;16.77;5.50;;;8.70;99.90;;;;;;5054294;28;20484;-57
2024/02/20 01:41:15;;;;;;;14.87;5.53;;;8.70;99.90;;;;;;5054479;28;20832;-57
2024/02/20 01:43:41;;;;;;;26.30;5.97;;;8.70;99.90;;;;;;5054140;28;20449;-57
2024/02/20 01:46:09;;;;;;;17.67;6.70;;;8.70;99.90;;;;;;5054456;28;20434;-57
2024/02/20 01:48:36;;;;;;;15.43;6.17;;;8.70;99.90;;;;;;5054633;28;20441;-57
2024/02/20 01:51:05;;;;;;;13.30;6.43;;;8.60;99.90;;;;;;5054340;28;20465;-57
2024/02/20 01:53:32;;;;;;;22.00;6.80;;;8.60;99.90;;;;;;5054048;28;20457;-57
2024/02/20 01:56:00;;;;;;;19.50;7.77;;;8.60;99.90;;;;;;5054517;28;20480;-57
2024/02/20 01:58:27;;;;;;;21.33;9.00;;;8.60;99.90;;;;;;5054692;28;20998;-57
2024/02/20 02:00:54;;;;;;;26.90;7.73;;;8.60;99.90;;;;;;5054492;28;20470;-56
2024/02/20 02:03:20;;;;;;;31.17;7.63;;;8.60;99.90;;;;;;5054556;28;20441;-57
2024/02/20 02:05:47;;;;;;;16.63;7.30;;;8.60;99.90;;;;;;5054656;28;20521;-57
2024/02/20 02:08:16;;;;;;;26.67;7.73;;;8.50;99.90;;;;;;5054448;28;20677;-57
2024/02/20 02:10:44;;;;;;;28.80;8.60;;;8.60;99.90;;;;;;5055750;28;20462;-57
2024/02/20 02:13:11;;;;;;;25.03;8.50;;;8.50;99.90;;;;;;5055034;28;20441;-57
2024/02/20 02:15:38;;;;;;;23.30;8.90;;;8.50;99.90;;;;;;5054753;28;20481;-57
2024/02/20 02:18:05;;;;;;;24.50;10.57;;;8.50;99.90;;;;;;5054488;28;20822;-57
2024/02/20 02:20:31;;;;;;;23.57;8.80;;;8.50;99.90;;;;;;5054702;28;20549;-57
2024/02/20 02:22:58;;;;;;;26.40;8.73;;;8.40;99.90;;;;;;5055392;28;20480;-57
2024/02/20 02:25:26;;;;;;;20.40;8.57;;;8.50;99.90;;;;;;5055277;28;20449;-57
2024/02/20 02:27:54;;;;;;;25.70;8.60;;;8.40;99.90;;;;;;5056056;28;20441;-56
2024/02/20 02:30:23;;;;;;;15.67;7.63;;;8.40;99.90;;;;;;5055783;28;20462;-57
2024/02/20 02:32:50;;;;;;;21.93;9.57;;;8.40;99.90;;;;;;5056082;28;20442;-57
2024/02/20 02:35:18;;;;;;;28.07;8.83;;;8.40;99.90;;;;;;5055187;28;20951;-57
2024/02/20 02:37:45;;;;;;;19.63;8.73;;;8.50;99.90;;;;;;5053643;28;20440;-57
2024/02/20 02:40:12;;;;;;;24.10;8.23;;;8.40;99.90;;;;;;5053588;28;20816;-57
2024/02/20 02:42:39;;;;;;;29.57;10.07;;;8.40;99.90;;;;;;5053560;28;20455;-57
2024/02/20 02:45:08;;;;;;;20.60;8.70;;;8.40;99.90;;;;;;5053198;28;20449;-57
2024/02/20 02:47:35;;;;;;;33.23;10.23;;;8.40;99.90;;;;;;5052972;28;20433;-57
2024/02/20 02:50:02;;;;;;;19.30;8.60;;;8.40;99.90;;;;;;5053208;28;20454;-57
2024/02/20 02:52:29;;;;;;;28.03;8.03;;;8.40;99.90;;;;;;5053106;28;20449;-57
2024/02/20 02:54:55;;;;;;;26.33;9.30;;;8.40;99.90;;;;;;5053163;28;20459;-57
2024/02/20 02:57:22;;;;;;;24.13;8.23;;;8.40;99.90;;;;;;5052726;28;21032;-56
2024/02/20 02:59:49;;;;;;;30.57;10.93;;;8.40;99.90;;;;;;5052737;28;20465;-56
2024/02/20 03:02:18;;;;;;;24.67;8.80;;;8.40;99.90;;;;;;5052840;28;20970;-56
2024/02/20 03:04:45;;;;;;;31.50;8.20;;;8.40;99.90;;;;;;5053080;28;20453;-57
2024/02/20 03:07:12;;;;;;;26.00;8.77;;;8.30;99.90;;;;;;5052603;28;20939;-57
2024/02/20 03:09:39;;;;;;;17.63;8.20;;;8.30;99.90;;;;;;5054080;28;20478;-57
2024/02/20 03:12:07;;;;;;;24.30;8.33;;;8.30;99.90;;;;;;5056933;28;20445;-57
2024/02/20 03:14:34;;;;;;;26.03;9.23;;;8.30;99.90;;;;;;5056643;28;20850;-57
2024/02/20 03:17:01;;;;;;;25.13;8.63;;;8.30;99.90;;;;;;5056647;28;20485;-57
2024/02/20 03:19:29;;;;;;;22.80;7.30;;;8.30;99.90;;;;;;5056688;28;20549;-57
2024/02/20 03:21:56;;;;;;;19.87;7.63;;;8.40;99.90;;;;;;5056665;28;20445;-57
2024/02/20 03:24:23;;;;;;;26.60;8.73;;;8.40;99.90;;;;;;5056586;28;20445;-57
2024/02/20 03:26:50;;;;;;;24.50;8.87;;;8.40;99.90;;;;;;5056635;28;20445;-57
2024/02/20 03:29:16;;;;;;;21.07;8.27;;;8.40;99.90;;;;;;5056150;28;20465;-57
2024/02/20 03:31:44;;;;;;;17.57;8.13;;;8.40;99.90;;;;;;5056374;28;20472;-57
2024/02/20 03:34:11;;;;;;;23.60;9.80;;;8.40;99.90;;;;;;5056376;28;20898;-57
2024/02/20 03:36:39;;;;;;;26.80;10.20;;;8.50;99.90;;;;;;5056223;28;20477;-57
2024/02/20 03:39:07;;;;;;;30.70;10.00;;;8.50;99.90;;;;;;5056271;28;20463;-57
2024/02/20 03:41:33;;;;;;;17.13;8.43;;;8.50;99.90;;;;;;5055971;28;20481;-57
2024/02/20 03:44:01;;;;;;;19.67;9.33;;;8.50;99.90;;;;;;5056233;28;20445;-57
2024/02/20 03:46:29;;;;;;;21.87;9.63;;;8.60;99.90;;;;;;5056166;28;20442;-57
2024/02/20 03:48:56;;;;;;;22.10;10.17;;;8.60;99.90;;;;;;5056058;28;20449;-57
2024/02/20 03:51:22;;;;;;;16.07;9.57;;;8.60;99.90;;;;;;5056666;28;20449;-57
2024/02/20 03:53:50;;;;;;;21.00;8.27;;;8.50;99.90;;;;;;5056061;28;20461;-57
2024/02/20 03:56:18;;;;;;;25.43;10.93;;;8.50;99.90;;;;;;5056596;28;20486;-57
2024/02/20 03:58:45;;;;;;;21.83;10.23;;;8.50;99.90;;;;;;5055921;28;20450;-57
2024/02/20 04:01:12;;;;;;;23.97;8.03;;;8.50;99.90;;;;;;5055858;28;20466;-57
2024/02/20 04:03:38;;;;;;;29.97;10.73;;;8.50;99.90;;;;;;5055876;28;20445;-57
2024/02/20 04:06:08;;;;;;;22.80;10.00;;;8.50;99.90;;;;;;5055748;28;20454;-57
2024/02/20 04:08:35;;;;;;;23.40;11.30;;;8.60;99.90;;;;;;5055647;28;20503;-57
2024/02/20 04:11:03;;;;;;;17.13;9.87;;;8.60;99.90;;;;;;5055223;28;20987;-57
2024/02/20 04:13:30;;;;;;;23.40;9.53;;;8.60;99.90;;;;;;5055667;28;20442;-57
2024/02/20 04:15:56;;;;;;;24.47;8.63;;;8.60;99.90;;;;;;5055261;28;21007;-57
2024/02/20 04:18:23;;;;;;;22.73;10.93;;;8.60;99.90;;;;;;5055642;28;20446;-57
2024/02/20 04:20:50;;;;;;;19.10;9.60;;;8.60;99.90;;;;;;5054261;28;20469;-57
2024/02/20 04:23:17;;;;;;;22.73;10.00;;;8.60;99.90;;;;;;5055211;28;20452;-57
2024/02/20 04:25:44;;;;;;;23.30;9.87;;;8.60;99.90;;;;;;5055494;28;20477;-57
2024/02/20 04:28:12;;;;;;;20.53;9.77;;;8.60;99.90;;;;;;5055098;28;20442;-57
2024/02/20 04:30:44;;;;;;;26.50;10.20;;;8.60;99.90;;;;;;5054995;28;20836;-57
2024/02/20 04:33:11;;;;;;;28.20;9.73;;;8.60;99.90;;;;;;5055311;28;20516;-57
2024/02/20 04:35:38;;;;;;;23.10;10.03;;;8.60;99.90;;;;;;5054983;28;21014;-57
2024/02/20 04:38:05;;;;;;;18.50;9.07;;;8.60;99.90;;;;;;5055106;28;20482;-57
2024/02/20 04:40:32;;;;;;;19.70;9.80;;;8.60;99.90;;;;;;5054793;28;20469;-57
2024/02/20 04:42:59;;;;;;;18.27;9.00;;;8.60;99.90;;;;;;5055059;28;20449;-57
2024/02/20 04:45:27;;;;;;;25.27;10.53;;;8.60;99.90;;;;;;5054836;28;20442;-57
2024/02/20 04:47:54;;;;;;;18.33;9.63;;;8.60;99.90;;;;;;5054802;28;20442;-57
2024/02/20 04:50:21;;;;;;;24.93;10.00;;;8.60;99.90;;;;;;5054863;28;20553;-57
2024/02/20 04:52:47;;;;;;;23.30;9.90;;;8.60;99.90;;;;;;5054947;28;20449;-57
2024/02/20 04:55:14;;;;;;;28.17;9.77;;;8.60;99.90;;;;;;5054571;28;20553;-57
2024/02/20 04:57:41;;;;;;;20.87;10.80;;;8.60;99.90;;;;;;5054861;28;20489;-56
2024/02/20 05:00:10;;;;;;;29.13;10.97;;;8.50;99.90;;;;;;5054822;28;20550;-57
2024/02/20 05:02:38;;;;;;;26.13;11.87;;;8.50;99.90;;;;;;5054800;28;20456;-57
2024/02/20 05:05:05;;;;;;;36.03;11.27;;;8.50;99.90;;;;;;5054429;28;20446;-57
2024/02/20 05:07:32;;;;;;;21.70;11.30;;;8.50;99.90;;;;;;5054573;28;20488;-57
2024/02/20 05:09:59;;;;;;;22.63;11.30;;;8.50;99.90;;;;;;5055249;28;20457;-57
2024/02/20 05:12:26;;;;;;;19.57;9.17;;;8.50;99.90;;;;;;5054532;28;20442;-60
2024/02/20 05:14:52;;;;;;;27.53;11.70;;;8.50;99.90;;;;;;5054657;28;20471;-57
2024/02/20 05:17:19;;;;;;;22.37;10.40;;;8.50;99.90;;;;;;5054923;28;20477;-57
2024/02/20 05:19:47;;;;;;;23.23;10.93;;;8.50;99.90;;;;;;5054604;28;20461;-57
2024/02/20 05:22:16;;;;;;;22.83;10.73;;;8.50;99.90;;;;;;5054799;28;20441;-57
2024/02/20 05:24:44;;;;;;;21.60;11.70;;;8.50;99.90;;;;;;5054427;28;20781;-57
2024/02/20 05:27:11;;;;;;;25.10;10.80;;;8.50;99.90;;;;;;5054453;28;20472;-57
2024/02/20 05:29:37;;;;;;;22.77;11.10;;;8.50;99.90;;;;;;5054167;28;20462;-57
2024/02/20 05:32:05;;;;;;;24.47;12.13;;;8.50;99.90;;;;;;5054127;28;20446;-57
2024/02/20 05:34:32;;;;;;;29.73;11.60;;;8.50;99.90;;;;;;5054286;28;20444;-57
2024/02/20 05:37:00;;;;;;;30.33;12.03;;;8.50;99.90;;;;;;5054052;28;20485;-56
2024/02/20 05:39:26;;;;;;;28.80;11.70;;;8.50;99.90;;;;;;5054029;28;20847;-57
2024/02/20 05:41:53;;;;;;;19.97;10.20;;;8.40;99.90;;;;;;5054115;28;20468;-57
2024/02/20 05:44:20;;;;;;;29.00;10.20;;;8.40;99.90;;;;;;5054188;28;20438;-56
2024/02/20 05:46:47;;;;;;;28.03;11.50;;;8.40;99.90;;;;;;5053623;28;20936;-57
2024/02/20 05:49:14;;;;;;;33.30;11.73;;;8.40;99.90;;;;;;5053723;28;20473;-57
2024/02/20 05:51:41;;;;;;;24.93;11.43;;;8.40;99.90;;;;;;5053753;28;20449;-57
2024/02/20 05:54:09;;;;;;;20.40;11.20;;;8.40;99.90;;;;;;5053676;28;20457;-56
2024/02/20 05:56:36;;;;;;;28.67;10.43;;;8.40;99.90;;;;;;5053615;28;20446;-55
2024/02/20 05:59:03;;;;;;;22.27;10.10;;;8.40;99.90;;;;;;5053367;28;20834;-57
2024/02/20 06:01:30;;;;;;;31.03;11.20;;;8.40;99.90;;;;;;5053627;28;20441;-57
2024/02/20 06:03:57;;;;;;;25.67;10.10;;;8.40;99.90;;;;;;5053324;28;20936;-57
2024/02/20 06:06:23;;;;;;;23.53;11.53;;;8.30;99.90;;;;;;5053555;28;20445;-56
2024/02/20 06:08:50;;;;;;;32.33;10.47;;;8.40;99.90;;;;;;5053721;28;20433;-56
2024/02/20 06:11:21;;;;;;;25.23;10.40;;;8.30;99.90;;;;;;5053133;28;20461;-57
2024/02/20 06:13:48;;;;;;;22.83;9.90;;;8.40;99.90;;;;;;5053259;28;20426;-57
2024/02/20 06:16:15;;;;;;;20.77;10.30;;;8.40;99.90;;;;;;5053130;28;20540;-57
2024/02/20 06:18:42;;;;;;;25.07;10.53;;;8.30;99.90;;;;;;5053089;28;20999;-56
2024/02/20 06:21:09;;;;;;;28.67;10.87;;;8.30;99.90;;;;;;5053318;28;20472;-57
2024/02/20 06:23:37;;;;;;;27.17;10.80;;;8.30;99.90;;;;;;5053280;28;20543;-56
2024/02/20 06:26:04;;;;;;;23.87;10.40;;;8.30;99.90;;;;;;5053297;28;20444;-57
2024/02/20 06:28:33;;;;;;;23.07;11.00;;;8.20;99.90;;;;;;5053482;28;20535;-57
2024/02/20 06:31:03;;;;;;;25.50;10.60;;;8.20;99.90;;;;;;5052833;28;21002;-56
2024/02/20 06:33:30;;;;;;;25.33;12.40;;;8.20;99.90;;;;;;5053602;28;20438;-56
2024/02/20 06:35:56;;;;;;;28.30;11.20;;;8.20;99.90;;;;;;5053506;28;20444;-56
2024/02/20 06:38:23;;;;;;;27.70;11.80;;;8.30;99.90;;;;;;5052915;28;20481;-56
2024/02/20 06:40:50;;;;;;;31.87;11.90;;;8.20;99.90;;;;;;5053154;28;21038;-56
2024/02/20 06:43:17;;;;;;;34.67;13.03;;;8.30;99.90;;;;;;5053202;28;20450;-56
2024/02/20 06:45:45;;;;;;;29.27;11.20;;;8.30;99.90;;;;;;5056554;28;20792;-55
2024/02/20 06:48:11;;;;;;;31.43;13.40;;;8.30;99.90;;;;;;5057298;28;20442;-56
2024/02/20 06:50:38;;;;;;;26.03;11.30;;;8.40;99.90;;;;;;5057113;28;20469;-56
2024/02/20 06:53:06;;;;;;;26.73;11.40;;;8.40;99.90;;;;;;5056663;28;20456;-56
2024/02/20 06:55:33;;;;;;;32.37;13.33;;;8.40;99.90;;;;;;5057168;28;20452;-56
2024/02/20 06:58:00;;;;;;;26.77;12.87;;;8.40;99.90;;;;;;5057041;28;20484;-57
2024/02/20 07:00:27;;;;;;;31.23;13.17;;;8.40;99.90;;;;;;5057022;28;20504;-57
2024/02/20 07:02:55;;;;;;;28.47;12.70;;;8.40;99.90;;;;;;5056638;28;20452;-56
2024/02/20 07:05:22;;;;;;;28.77;12.50;;;8.40;99.90;;;;;;5057033;28;20441;-57
2024/02/20 07:07:49;;;;;;;28.07;14.50;;;8.50;99.90;;;;;;5057033;28;20468;-57
2024/02/20 07:10:15;;;;;;;30.27;13.57;;;8.60;99.90;;;;;;5056429;28;20465;-57
2024/02/20 07:12:42;;;;;;;31.00;12.70;;;8.60;99.90;;;;;;5056649;28;20523;-55
2024/02/20 07:15:09;;;;;;;22.33;11.87;;;8.60;99.90;;;;;;5056552;28;20939;-56
2024/02/20 07:17:36;;;;;;;33.17;12.37;;;8.70;99.90;;;;;;5056949;28;20488;-56
2024/02/20 07:20:06;;;;;;;34.57;12.40;;;8.70;99.90;;;;;;5056835;28;20476;-57
2024/02/20 07:22:34;;;;;;;24.77;11.93;;;8.80;99.90;;;;;;5056692;28;20482;-57
2024/02/20 07:25:01;;;;;;;31.80;13.63;;;8.80;99.90;;;;;;5056629;28;20445;-56
2024/02/20 07:27:28;;;;;;;28.27;12.07;;;8.90;99.90;;;;;;5056538;28;20528;-56
2024/02/20 07:29:55;;;;;;;26.57;12.00;;;8.90;99.90;;;;;;5057227;28;20463;-57
2024/02/20 07:32:22;;;;;;;34.40;13.10;;;8.90;99.90;;;;;;5056404;28;20477;-57
2024/02/20 07:34:50;;;;;;;35.10;13.50;;;9.00;99.90;;;;;;5056560;28;20445;-57
2024/02/20 07:37:18;;;;;;;33.23;13.20;;;9.00;99.90;;;;;;5056088;28;20998;-56
2024/02/20 07:39:45;;;;;;;29.20;13.40;;;9.10;99.90;;;;;;5056370;28;20556;-56
2024/02/20 07:42:11;;;;;;;22.30;13.07;;;9.10;99.90;;;;;;5056417;28;20445;-56
2024/02/20 07:44:38;;;;;;;27.00;14.10;;;9.10;99.90;;;;;;5056437;28;20952;-56
2024/02/20 07:47:05;;;;;;;30.77;13.10;;;9.20;99.90;;;;;;5056076;28;20809;-56
2024/02/20 07:49:32;;;;;;;26.33;12.43;;;9.20;99.90;;;;;;5056088;28;20540;-56
2024/02/20 07:51:59;;;;;;;40.33;13.23;;;9.20;99.90;;;;;;5055713;28;20441;-56
2024/02/20 07:54:27;;;;;;;27.57;14.10;;;9.20;99.90;;;;;;5055719;28;20480;-56
2024/02/20 07:56:55;;;;;;;26.40;11.80;;;9.20;99.90;;;;;;5055521;28;20441;-56
2024/02/20 07:59:22;;;;;;;24.60;12.60;;;9.30;99.90;;;;;;5055804;28;20525;-56
2024/02/20 08:01:51;;;;;;;23.40;13.07;;;9.30;99.90;;;;;;5055450;28;20449;-55
2024/02/20 08:04:19;;;;;;;28.73;13.47;;;9.40;99.90;;;;;;5055594;28;20548;-56
2024/02/20 08:06:46;;;;;;;31.60;13.23;;;9.50;99.90;;;;;;5055761;28;20449;-56
2024/02/20 08:09:12;;;;;;;28.20;13.40;;;9.50;99.90;;;;;;5055692;28;20450;-56
2024/02/20 08:11:41;;;;;;;31.03;13.00;;;9.50;99.90;;;;;;5055441;28;20450;-55
2024/02/20 08:14:09;;;;;;;28.03;12.80;;;9.60;99.90;;;;;;5055444;28;20449;-56
2024/02/20 08:16:36;;;;;;;30.17;13.07;;;9.70;99.90;;;;;;5055616;28;20453;-56
2024/02/20 08:19:03;;;;;;;28.20;12.07;;;9.70;99.90;;;;;;5055173;28;20905;-56
2024/02/20 08:21:30;;;;;;;25.63;13.10;;;9.70;99.90;;;;;;5055467;28;20442;-56
2024/02/20 08:23:58;;;;;;;36.47;14.03;;;9.80;99.90;;;;;;5055547;28;20445;-56
2024/02/20 08:26:25;;;;;;;22.50;12.10;;;9.70;99.90;;;;;;5055838;28;20481;-56
2024/02/20 08:28:53;;;;;;;31.37;13.60;;;9.80;99.90;;;;;;5055746;28;20793;-56
2024/02/20 08:31:20;;;;;;;26.20;14.00;;;9.90;99.90;;;;;;5056093;28;20822;-56
2024/02/20 08:33:47;;;;;;;37.87;13.20;;;9.90;99.90;;;;;;5055708;28;20446;-56
2024/02/20 08:36:14;;;;;;;30.57;14.60;;;9.90;99.90;;;;;;5055322;28;20448;-56
2024/02/20 08:38:40;;;;;;;33.70;15.40;;;9.90;99.90;;;;;;5055217;28;20485;-56
2024/02/20 08:41:07;;;;;;;32.57;15.03;;;10.00;99.90;;;;;;5055186;28;20458;-56
2024/02/20 08:43:35;;;;;;;32.60;15.73;;;10.10;99.90;;;;;;5055130;28;20442;-56
2024/02/20 08:46:03;;;;;;;32.50;16.40;;;10.10;99.90;;;;;;5055137;28;20473;-56
2024/02/20 08:48:29;;;;;;;35.53;18.67;;;10.20;99.90;;;;;;5054961;28;20445;-56
2024/02/20 08:50:56;;;;;;;32.37;16.13;;;10.20;99.90;;;;;;5054554;28;20469;-56
2024/02/20 08:53:23;;;;;;;32.70;15.40;;;10.20;99.90;;;;;;5054877;28;20507;-56
2024/02/20 08:55:50;;;;;;;39.27;16.70;;;10.30;99.90;;;;;;5054666;28;20794;-56
2024/02/20 08:58:17;;;;;;;31.37;16.10;;;10.40;99.90;;;;;;5055033;28;20485;-56
2024/02/20 09:00:45;;;;;;;37.37;17.83;;;10.50;99.90;;;;;;5054794;28;20871;-56
2024/02/20 09:03:14;;;;;;;32.40;17.43;;;10.50;99.90;;;;;;5054788;28;20816;-56
2024/02/20 09:05:41;;;;;;;37.37;16.93;;;10.60;99.90;;;;;;5054825;28;20448;-57
2024/02/20 09:08:08;;;;;;;35.27;17.23;;;10.60;99.90;;;;;;5054006;28;20526;-56
2024/02/20 09:10:35;;;;;;;35.03;17.00;;;10.70;99.90;;;;;;5054594;28;20466;-56
2024/02/20 09:13:02;;;;;;;40.20;17.00;;;10.70;99.90;;;;;;5054448;28;20448;-56
2024/02/20 09:15:29;;;;;;;30.73;16.90;;;10.70;99.90;;;;;;5054413;28;20454;-56
2024/02/20 09:17:55;;;;;;;36.07;17.33;;;10.70;99.90;;;;;;5054127;28;20473;-56
2024/02/20 09:20:23;;;;;;;34.17;17.07;;;10.70;99.90;;;;;;5054105;28;20852;-56
2024/02/20 09:22:50;;;;;;;34.70;17.50;;;10.70;99.90;;;;;;5054461;28;20444;-56
2024/02/20 09:25:17;;;;;;;35.67;19.53;;;10.70;99.90;;;;;;5054285;28;20441;-56
2024/02/20 09:27:44;;;;;;;38.67;17.50;;;10.70;99.90;;;;;;5054383;28;20452;-56
2024/02/20 09:30:11;;;;;;;34.90;19.17;;;10.70;99.90;;;;;;5054198;28;20473;-56
2024/02/20 09:32:40;;;;;;;37.60;18.27;;;10.80;99.90;;;;;;5053825;28;20449;-56
2024/02/20 09:35:08;;;;;;;35.03;18.87;;;10.70;99.90;;;;;;5054162;28;20452;-56
2024/02/20 09:37:36;;;;;;;31.73;19.17;;;10.70;99.90;;;;;;5054105;28;20456;-56
2024/02/20 09:40:04;;;;;;;44.27;19.30;;;10.70;99.90;;;;;;5054058;28;20839;-56
2024/02/20 09:42:34;;;;;;;34.30;18.10;;;10.80;99.90;;;;;;5054013;28;20441;-56
2024/02/20 09:45:01;;;;;;;33.17;20.00;;;10.90;99.90;;;;;;5054323;28;20451;-56
2024/02/20 09:47:28;;;;;;;39.43;18.13;;;10.90;99.90;;;;;;5054173;28;20464;-56
2024/02/20 09:49:55;;;;;;;36.23;20.43;;;11.00;99.90;;;;;;5053690;28;20996;-56
2024/02/20 09:52:23;;;;;;;39.43;20.93;;;11.00;99.90;;;;;;5053924;28;20453;-56
2024/02/20 09:54:51;;;;;;;39.87;20.50;;;11.00;99.90;;;;;;5054030;28;20899;-56
2024/02/20 09:57:18;;;;;;;39.37;19.50;;;10.90;99.90;;;;;;5053522;28;20464;-55
2024/02/20 09:59:45;;;;;;;45.30;22.20;;;10.90;99.90;;;;;;5053692;28;20485;-55
2024/02/20 10:02:19;;;;;;;32.93;20.07;;;10.90;99.90;;;;;;5053746;28;20469;-56
2024/02/20 10:04:47;;;;;;;37.50;21.83;;;11.00;99.90;;;;;;5053544;28;20922;-56
2024/02/20 10:07:16;;;;;;;37.53;21.50;;;11.00;99.90;;;;;;5053697;28;20449;-55
2024/02/20 10:09:44;;;;;;;40.40;21.47;;;11.00;99.90;;;;;;5053503;28;20462;-56
2024/02/20 10:12:23;;;;;;;41.50;20.83;;;11.20;99.90;;;;;;5053597;28;20457;-56
2024/02/20 10:14:50;;;;;;;42.27;21.40;;;11.20;99.90;;;;;;5053632;28;20480;-56
2024/02/20 10:17:17;;;;;;;47.23;22.87;;;11.20;99.90;;;;;;5053663;28;20449;-56
2024/02/20 10:19:44;;;;;;;40.37;22.80;;;11.20;99.90;;;;;;5053252;28;20488;-56
2024/02/20 10:22:11;;;;;;;36.53;21.20;;;11.20;99.90;;;;;;5053446;28;20544;-56
2024/02/20 10:24:38;;;;;;;47.87;22.37;;;11.20;99.90;;;;;;5053676;28;20521;-56
2024/02/20 10:27:05;;;;;;;41.17;22.93;;;11.20;99.90;;;;;;5053237;28;20437;-56
2024/02/20 10:29:33;;;;;;;45.10;20.63;;;11.20;99.90;;;;;;5053155;28;20461;-56
2024/02/20 10:32:00;;;;;;;46.43;20.90;;;11.20;99.90;;;;;;5053200;28;20524;-56
2024/02/20 10:34:27;;;;;;;43.60;20.90;;;11.20;99.90;;;;;;5053261;28;20472;-56
2024/02/20 10:37:05;;;;;;;34.30;19.67;;;11.10;99.90;;;;;;5053232;28;20458;-56
2024/02/20 10:39:31;;;;;;;37.10;20.90;;;11.00;99.90;;;;;;5052831;28;21068;-56
2024/02/20 10:42:00;;;;;;;36.90;20.33;;;11.00;99.90;;;;;;5053160;28;20444;-56
2024/02/20 10:44:29;;;;;;;38.47;20.80;;;11.00;99.90;;;;;;5053142;28;20499;-56
2024/02/20 10:46:58;;;;;;;46.87;21.90;;;11.00;99.90;;;;;;5053106;28;20448;-56
2024/02/20 10:49:30;;;;;;;41.23;20.03;;;11.00;99.90;;;;;;5053035;28;20809;-56
2024/02/20 10:51:58;;;;;;;38.33;19.97;;;11.10;99.90;;;;;;5053008;28;20433;-56
2024/02/20 10:54:26;;;;;;;31.60;17.70;;;11.20;99.90;;;;;;5052712;28;20492;-56
2024/02/20 10:56:55;;;;;;;35.33;19.47;;;11.40;99.90;;;;;;5052690;28;20452;-56
2024/02/20 10:59:22;;;;;;;34.30;18.83;;;11.60;99.90;;;;;;5052952;28;20492;-56
2024/02/20 11:01:49;;;;;;;38.10;17.23;;;11.80;99.90;;;;;;5053010;28;20445;-56
2024/02/20 11:04:17;;;;;;;29.80;16.47;;;11.90;99.90;;;;;;5052639;28;20452;-56
2024/02/20 11:06:47;;;;;;;32.37;14.80;;;12.00;99.90;;;;;;5052942;28;20448;-56
2024/02/20 11:09:14;;;;;;;31.77;14.30;;;12.20;99.90;;;;;;5053177;28;20446;-56
2024/02/20 11:11:41;;;;;;;39.40;17.47;;;12.10;99.90;;;;;;5052788;28;20445;-56
2024/02/20 11:14:08;;;;;;;36.70;16.83;;;12.20;99.90;;;;;;5052785;28;20453;-56
2024/02/20 11:16:36;;;;;;;35.23;15.40;;;12.30;99.90;;;;;;5052810;28;20441;-55
2024/02/20 11:19:04;;;;;;;31.70;15.57;;;12.20;99.90;;;;;;5052699;28;20916;-56
2024/02/20 11:21:33;;;;;;;32.23;15.53;;;12.20;99.90;;;;;;5052911;28;20441;-56
2024/02/20 11:24:11;;;;;;;34.23;14.27;;;12.20;99.90;;;;;;5053019;28;20441;-56
2024/02/20 11:26:38;;;;;;;32.17;13.60;;;12.30;99.90;;;;;;5052571;28;20815;-56
2024/02/20 11:29:05;;;;;;;28.93;12.60;;;12.40;99.90;;;;;;5052688;28;20448;-56
2024/02/20 11:31:32;;;;;;;31.50;12.80;;;12.30;99.90;;;;;;5055491;28;20502;-56
2024/02/20 11:34:00;;;;;;;26.00;12.47;;;12.20;99.90;;;;;;5056410;28;20481;-56
2024/02/20 11:36:27;;;;;;;23.47;12.53;;;12.20;99.90;;;;;;5057564;28;20437;-56
2024/02/20 11:39:05;;;;;;;34.60;11.80;;;12.10;99.90;;;;;;5057807;28;20485;-57
2024/02/20 11:41:32;;;;;;;24.73;11.27;;;12.10;99.90;;;;;;5057377;28;20532;-56
2024/02/20 11:44:03;;;;;;;27.77;10.93;;;12.10;99.90;;;;;;5057334;28;20445;-56
2024/02/20 11:46:31;;;;;;;25.63;11.83;;;12.10;99.90;;;;;;5056529;28;20437;-55
2024/02/20 11:48:59;;;;;;;23.70;10.87;;;12.20;99.90;;;;;;5056405;28;20441;-56
2024/02/20 11:51:26;;;;;;;23.30;10.73;;;12.40;99.90;;;;;;5056807;28;20773;-56
2024/02/20 11:54:05;;;;;;;24.93;9.97;;;12.50;99.90;;;;;;5056036;28;20571;-56
2024/02/20 11:56:33;;;;;;;26.57;9.60;;;12.60;99.90;;;;;;5056128;28;20437;-56
2024/02/20 11:59:00;;;;;;;30.97;9.93;;;12.50;99.90;;;;;;5055614;28;21036;-56
2024/02/20 12:01:28;;;;;;;31.07;10.77;;;12.60;99.90;;;;;;5055572;28;20437;-55
2024/02/20 12:03:56;;;;;;;29.70;10.30;;;12.70;99.90;;;;;;5055910;28;20455;-56
2024/02/20 12:06:27;;;;;;;26.00;8.43;;;12.80;99.90;;;;;;5055869;28;20477;-56
2024/02/20 12:08:55;;;;;;;30.10;9.27;;;12.80;99.90;;;;;;5055601;28;20958;-56
2024/02/20 12:11:26;;;;;;;22.50;7.97;;;12.80;99.90;;;;;;5055434;28;20465;-56
2024/02/20 12:13:54;;;;;;;24.67;7.70;;;12.80;99.90;;;;;;5055974;28;20432;-56
2024/02/20 12:16:24;;;;;;;25.90;8.20;;;12.80;99.90;;;;;;5055740;28;20446;-56
2024/02/20 12:18:52;;;;;;;22.33;7.40;;;12.80;99.90;;;;;;5055974;28;20465;-56
2024/02/20 12:21:24;;;;;;;19.83;7.20;;;12.80;99.90;;;;;;5055601;28;20465;-55
2024/02/20 12:23:55;;;;;;;22.13;7.40;;;12.80;99.90;;;;;;5055619;28;20425;-56
2024/02/20 12:26:25;;;;;;;20.93;7.13;;;12.90;99.90;;;;;;5055301;28;20957;-56
2024/02/20 12:28:52;;;;;;;28.33;8.00;;;12.80;99.90;;;;;;5055655;28;20836;-56
2024/02/20 12:31:21;;;;;;;20.90;7.60;;;12.90;99.90;;;;;;5055343;28;20470;-55
2024/02/20 12:33:48;;;;;;;25.30;8.27;;;12.90;99.90;;;;;;5055358;28;20445;-56
2024/02/20 12:36:15;;;;;;;25.27;8.30;;;12.90;99.90;;;;;;5055399;28;20445;-56
2024/02/20 12:38:42;;;;;;;17.60;9.07;;;13.00;99.90;;;;;;5055194;28;20473;-56